Time;durP1;ratioP1;P1;durP2;ratioP2;P2;SDS_P1;SDS_P2;PMS_P1;PMS_P2;Temp;Humidity;BMP_temperature;BMP_pressure;BME280_temperature;BME280_humidity;BME280_pressure;Samples;Min_cycle;Max_cycle;Signal;HPM_P1;HPM_P2
2024/04/16 00:02:20;;;;;;;0.20;0.20;;;10.10;99.90;;;;;;5393747;26;20481;-75
2024/04/16 00:04:46;;;;;;;0.30;0.30;;;10.20;99.90;;;;;;5402332;26;20010;-77
2024/04/16 00:07:11;;;;;;;0.50;0.50;;;9.80;99.90;;;;;;5402713;26;20010;-78
2024/04/16 00:09:37;;;;;;;0.65;0.47;;;10.10;99.90;;;;;;5429843;26;20457;-77
2024/04/16 00:12:02;;;;;;;7.38;0.63;;;10.10;99.90;;;;;;5396258;26;20006;-75
2024/04/16 00:14:28;;;;;;;1.05;0.50;;;10.10;99.90;;;;;;5393157;26;20004;-75
2024/04/16 00:16:53;;;;;;;2.28;0.90;;;10.00;99.90;;;;;;5401083;26;20069;-76
2024/04/16 00:19:19;;;;;;;1.58;0.65;;;10.00;99.90;;;;;;5398584;26;20469;-75
2024/04/16 00:21:45;;;;;;;1.65;0.80;;;9.90;99.90;;;;;;5392929;26;20477;-78
2024/04/16 00:24:10;;;;;;;2.75;1.20;;;9.90;99.90;;;;;;5410981;26;20011;-78
2024/04/16 00:26:36;;;;;;;0.95;0.73;;;9.80;99.90;;;;;;5409663;26;20378;-78
2024/04/16 00:29:01;;;;;;;2.55;0.80;;;9.70;99.90;;;;;;5408351;26;20068;-78
2024/04/16 00:31:27;;;;;;;3.03;1.20;;;9.80;99.90;;;;;;5410602;26;19996;-78
2024/04/16 00:33:52;;;;;;;2.45;0.73;;;9.90;99.90;;;;;;5402057;26;20011;-75
2024/04/16 00:36:18;;;;;;;2.22;1.00;;;10.00;99.90;;;;;;5398028;26;19996;-76
2024/04/16 00:38:43;;;;;;;1.42;0.90;;;9.90;99.90;;;;;;5404719;26;20357;-78
2024/04/16 00:41:09;;;;;;;1.75;0.80;;;9.90;99.90;;;;;;5403687;26;20611;-75
2024/04/16 00:43:34;;;;;;;1.20;0.98;;;9.70;99.90;;;;;;5391608;26;20450;-76
2024/04/16 00:46:01;;;;;;;2.90;1.10;;;9.70;99.90;;;;;;5389845;26;20463;-77
2024/04/16 00:48:28;;;;;;;2.88;0.90;;;9.70;99.90;;;;;;5399909;26;20543;-75
2024/04/16 00:50:58;;;;;;;1.33;0.80;;;9.70;99.90;;;;;;5401383;26;20008;-75
2024/04/16 00:53:25;;;;;;;1.58;0.93;;;9.70;99.90;;;;;;5428039;26;20000;-74
2024/04/16 00:55:51;;;;;;;4.32;0.80;;;9.70;99.90;;;;;;5401671;26;20494;-78
2024/04/16 00:58:18;;;;;;;1.95;0.80;;;9.50;99.90;;;;;;5402525;26;20015;-75
2024/04/16 01:00:44;;;;;;;0.98;0.70;;;9.70;99.90;;;;;;5405711;26;20728;-77
2024/04/16 01:03:10;;;;;;;1.25;0.75;;;9.70;99.90;;;;;;5433850;26;19999;-77
2024/04/16 01:05:36;;;;;;;2.72;0.60;;;9.60;99.90;;;;;;5398512;26;20000;-76
2024/04/16 01:08:02;;;;;;;4.40;0.60;;;9.70;99.90;;;;;;5400055;26;20026;-76
2024/04/16 01:10:30;;;;;;;5.07;0.75;;;9.60;99.90;;;;;;5398625;26;20484;-77
2024/04/16 01:12:55;;;;;;;1.02;0.50;;;9.70;99.90;;;;;;5402020;26;20015;-76
2024/04/16 01:15:21;;;;;;;1.85;0.63;;;9.70;99.90;;;;;;5390441;26;20000;-76
2024/04/16 01:17:48;;;;;;;3.80;0.52;;;9.50;99.90;;;;;;5390361;26;20000;-77
2024/04/16 01:20:14;;;;;;;1.95;0.80;;;9.60;99.90;;;;;;5406864;26;19999;-77
2024/04/16 01:22:46;;;;;;;1.02;0.57;;;9.80;99.90;;;;;;5406525;26;20543;-77
2024/04/16 01:25:11;;;;;;;1.48;0.63;;;9.70;99.90;;;;;;5410631;26;20028;-75
2024/04/16 01:27:37;;;;;;;4.97;0.55;;;9.60;99.90;;;;;;5393596;26;19996;-75
2024/04/16 01:30:03;;;;;;;1.90;1.35;;;9.60;99.90;;;;;;5401929;26;20003;-74
2024/04/16 01:32:28;;;;;;;3.92;0.73;;;9.50;99.90;;;;;;5402649;26;20000;-75
2024/04/16 01:34:54;;;;;;;0.75;0.65;;;9.70;99.90;;;;;;5403663;26;20444;-77
2024/04/16 01:37:19;;;;;;;2.38;0.60;;;9.90;99.90;;;;;;5394400;26;20470;-76
2024/04/16 01:39:45;;;;;;;0.68;0.68;;;9.50;99.90;;;;;;5394593;26;19999;-75
2024/04/16 01:42:10;;;;;;;0.90;0.52;;;9.40;99.90;;;;;;5406686;26;20080;-78
2024/04/16 01:44:36;;;;;;;3.55;0.85;;;9.60;99.90;;;;;;5400498;26;20453;-76
2024/04/16 01:47:02;;;;;;;0.88;0.65;;;9.70;99.90;;;;;;5393909;26;20004;-77
2024/04/16 01:49:27;;;;;;;1.75;0.70;;;9.80;99.90;;;;;;5402692;26;20023;-77
2024/04/16 01:51:53;;;;;;;1.65;0.90;;;9.80;99.90;;;;;;5401017;26;20046;-75
2024/04/16 01:54:18;;;;;;;3.05;0.90;;;9.60;99.90;;;;;;5408166;26;20004;-75
2024/04/16 01:56:45;;;;;;;3.88;0.93;;;9.70;99.90;;;;;;5408781;26;19991;-77
2024/04/16 01:59:11;;;;;;;0.82;0.68;;;9.60;99.90;;;;;;5394080;26;20015;-74
2024/04/16 02:01:36;;;;;;;5.50;1.33;;;9.60;99.90;;;;;;5397035;26;20345;-77
2024/04/16 02:04:02;;;;;;;3.63;1.33;;;9.50;99.90;;;;;;5403775;26;20000;-77
2024/04/16 02:06:27;;;;;;;2.78;1.00;;;9.60;99.90;;;;;;5400944;26;20003;-75
2024/04/16 02:08:53;;;;;;;3.55;1.45;;;9.50;99.90;;;;;;5396548;26;20073;-75
2024/04/16 02:11:19;;;;;;;3.88;1.50;;;9.70;99.90;;;;;;5389226;26;20008;-75
2024/04/16 02:13:44;;;;;;;4.22;1.60;;;9.60;99.90;;;;;;5405986;26;19992;-76
2024/04/16 02:16:10;;;;;;;3.00;1.33;;;9.50;99.90;;;;;;5402564;26;20426;-76
2024/04/16 02:18:35;;;;;;;6.00;1.55;;;9.50;99.90;;;;;;5406155;26;20514;-77
2024/04/16 02:21:01;;;;;;;3.42;1.50;;;9.60;99.90;;;;;;5402168;26;20548;-76
2024/04/16 02:23:26;;;;;;;5.53;1.55;;;9.60;99.90;;;;;;5400014;26;20011;-77
2024/04/16 02:25:53;;;;;;;6.18;1.52;;;9.50;99.90;;;;;;5402288;26;20368;-75
2024/04/16 02:28:19;;;;;;;1.00;0.80;;;9.50;99.90;;;;;;5397016;26;20002;-76
2024/04/16 02:30:44;;;;;;;3.00;1.00;;;9.50;99.90;;;;;;5391693;26;19992;-77
2024/04/16 02:33:14;;;;;;;4.32;0.88;;;9.50;99.90;;;;;;5408522;26;20010;-78
2024/04/16 02:35:39;;;;;;;2.20;0.80;;;9.40;99.90;;;;;;5399276;26;19995;-76
2024/04/16 02:38:05;;;;;;;4.00;0.98;;;9.40;99.90;;;;;;5401921;26;20282;-77
2024/04/16 02:40:30;;;;;;;4.18;0.90;;;9.50;99.90;;;;;;5393037;26;20341;-75
2024/04/16 02:42:56;;;;;;;7.35;1.10;;;9.40;99.90;;;;;;5393095;26;20058;-77
2024/04/16 02:45:22;;;;;;;5.15;0.90;;;9.40;99.90;;;;;;5407799;26;20014;-75
2024/04/16 02:47:48;;;;;;;4.65;0.93;;;9.50;99.90;;;;;;5409500;26;20000;-77
2024/04/16 02:50:13;;;;;;;4.53;0.85;;;9.40;99.90;;;;;;5408944;26;20006;-76
2024/04/16 02:52:39;;;;;;;2.00;0.70;;;9.40;99.90;;;;;;5395392;26;20035;-77
2024/04/16 02:55:06;;;;;;;4.75;0.77;;;9.50;99.90;;;;;;5399232;26;20010;-78
2024/04/16 02:57:33;;;;;;;2.83;1.10;;;9.50;99.90;;;;;;5400661;26;19999;-77
2024/04/16 02:59:59;;;;;;;3.50;1.00;;;9.40;99.90;;;;;;5402400;26;20462;-77
2024/04/16 03:02:24;;;;;;;0.98;0.77;;;9.30;99.90;;;;;;5396871;26;20013;-75
2024/04/16 03:04:50;;;;;;;4.88;0.80;;;9.30;99.90;;;;;;5422019;26;20444;-77
2024/04/16 03:07:16;;;;;;;1.73;0.63;;;9.30;99.90;;;;;;5403257;26;19995;-75
2024/04/16 03:09:41;;;;;;;7.13;0.65;;;9.40;99.90;;;;;;5399031;26;19992;-75
2024/04/16 03:12:07;;;;;;;2.33;0.90;;;9.30;99.90;;;;;;5393920;26;20018;-75
2024/04/16 03:14:32;;;;;;;2.50;1.02;;;9.20;99.90;;;;;;5391473;26;20007;-77
2024/04/16 03:16:59;;;;;;;2.70;1.00;;;9.20;99.90;;;;;;5398902;26;20415;-75
2024/04/16 03:19:25;;;;;;;2.00;0.70;;;9.20;99.90;;;;;;5401090;26;20003;-77
2024/04/16 03:21:50;;;;;;;1.35;0.50;;;9.30;99.90;;;;;;5403090;26;20019;-77
2024/04/16 03:24:16;;;;;;;4.15;0.90;;;9.40;99.90;;;;;;5393097;26;20077;-76
2024/04/16 03:26:42;;;;;;;2.03;0.88;;;9.30;99.90;;;;;;5391085;26;20008;-75
2024/04/16 03:29:07;;;;;;;5.13;1.00;;;9.30;99.90;;;;;;5403400;26;19999;-76
2024/04/16 03:31:33;;;;;;;1.02;0.70;;;9.30;99.90;;;;;;5407357;26;20013;-75
2024/04/16 03:33:58;;;;;;;1.75;0.95;;;9.30;99.90;;;;;;5397383;26;20054;-75
2024/04/16 03:36:24;;;;;;;1.35;0.68;;;9.20;99.90;;;;;;5390656;26;20004;-75
2024/04/16 03:38:50;;;;;;;2.80;1.05;;;9.10;99.90;;;;;;5401227;26;20000;-76
2024/04/16 03:41:16;;;;;;;1.50;0.90;;;9.10;99.90;;;;;;5404231;26;20129;-77
2024/04/16 03:43:42;;;;;;;3.42;1.02;;;9.10;99.90;;;;;;5404431;26;20037;-75
2024/04/16 03:46:08;;;;;;;2.53;0.70;;;9.20;99.90;;;;;;5411591;26;20003;-75
2024/04/16 03:48:34;;;;;;;10.07;1.30;;;9.20;99.90;;;;;;5397043;26;19995;-75
2024/04/16 03:50:59;;;;;;;2.58;0.73;;;9.20;99.90;;;;;;5401770;26;20011;-76
2024/04/16 03:53:25;;;;;;;2.28;0.80;;;9.10;99.90;;;;;;5403858;26;20708;-76
2024/04/16 03:55:51;;;;;;;2.08;0.88;;;9.20;99.90;;;;;;5389601;26;20000;-77
2024/04/16 03:58:16;;;;;;;7.72;0.80;;;9.20;99.90;;;;;;5398015;26;20004;-76
2024/04/16 04:01:00;;;;;;;5.60;0.80;;;9.10;99.90;;;;;;5398360;26;20453;-75
2024/04/16 04:03:26;;;;;;;0.50;0.50;;;8.90;99.90;;;;;;5401739;26;19995;-77
2024/04/16 04:05:52;;;;;;;3.05;0.68;;;9.00;99.90;;;;;;5393006;26;20012;-76
2024/04/16 04:08:18;;;;;;;2.78;0.88;;;9.10;99.90;;;;;;5393604;26;20129;-76
2024/04/16 04:10:44;;;;;;;1.52;0.63;;;9.10;99.90;;;;;;5405680;26;19996;-75
2024/04/16 04:13:09;;;;;;;7.50;0.90;;;9.10;99.90;;;;;;5403922;26;20397;-75
2024/04/16 04:15:38;;;;;;;2.65;1.20;;;9.10;99.90;;;;;;5407299;26;19996;-77
2024/04/16 04:18:04;;;;;;;1.00;0.68;;;9.10;99.90;;;;;;5405052;26;19996;-78
2024/04/16 04:20:30;;;;;;;2.67;0.75;;;9.10;99.90;;;;;;5396136;26;20041;-78
2024/04/16 04:22:55;;;;;;;5.50;1.02;;;9.10;99.90;;;;;;5398576;26;20000;-77
2024/04/16 04:25:21;;;;;;;0.70;0.57;;;9.10;99.90;;;;;;5430377;26;20003;-77
2024/04/16 04:27:47;;;;;;;4.03;0.70;;;9.00;99.90;;;;;;5384834;26;20070;-77
2024/04/16 04:30:13;;;;;;;1.83;0.75;;;9.00;99.90;;;;;;5397379;26;20000;-78
2024/04/16 04:32:39;;;;;;;4.13;0.70;;;9.10;99.90;;;;;;5399044;26;20333;-75
2024/04/16 04:35:06;;;;;;;5.95;0.98;;;8.90;99.90;;;;;;5400789;26;20014;-78
2024/04/16 04:37:32;;;;;;;1.35;0.57;;;9.00;99.90;;;;;;5390901;26;20000;-76
2024/04/16 04:39:58;;;;;;;2.05;0.95;;;9.00;99.90;;;;;;5405319;26;19996;-76
2024/04/16 04:42:25;;;;;;;1.50;0.80;;;9.00;99.90;;;;;;5397758;26;20119;-75
2024/04/16 04:44:51;;;;;;;0.70;0.70;;;9.00;99.90;;;;;;5399205;26;20664;-78
2024/04/16 04:47:19;;;;;;;3.75;0.82;;;9.00;99.90;;;;;;5405039;26;20004;-77
2024/04/16 04:49:45;;;;;;;1.30;0.70;;;9.00;99.90;;;;;;5393653;26;20476;-77
2024/04/16 04:52:10;;;;;;;2.05;0.60;;;8.90;99.90;;;;;;5393628;26;20003;-76
2024/04/16 04:54:36;;;;;;;2.65;0.47;;;8.90;99.90;;;;;;5405455;26;20008;-78
2024/04/16 04:57:02;;;;;;;2.85;0.57;;;8.90;99.90;;;;;;5402272;26;19996;-77
2024/04/16 04:59:28;;;;;;;0.77;0.55;;;9.00;99.90;;;;;;5400889;26;19995;-75
2024/04/16 05:01:54;;;;;;;2.10;0.80;;;9.00;99.90;;;;;;5394115;26;19996;-77
2024/04/16 05:04:20;;;;;;;1.08;0.90;;;8.80;99.90;;;;;;5410114;26;20049;-77
2024/04/16 05:06:45;;;;;;;0.40;0.40;;;9.00;99.90;;;;;;5407272;26;20011;-77
2024/04/16 05:09:11;;;;;;;1.20;0.65;;;8.90;99.90;;;;;;5408346;26;20014;-74
2024/04/16 05:11:36;;;;;;;2.00;0.70;;;8.90;99.90;;;;;;5399730;26;20700;-75
2024/04/16 05:14:02;;;;;;;0.50;0.50;;;8.90;99.90;;;;;;5402941;26;21264;-76
2024/04/16 05:16:27;;;;;;;1.90;0.75;;;9.00;99.90;;;;;;5405288;26;20011;-77
2024/04/16 05:18:53;;;;;;;2.00;0.70;;;9.00;99.90;;;;;;5401457;26;20015;-77
2024/04/16 05:21:18;;;;;;;4.90;0.70;;;9.20;99.90;;;;;;5394866;26;20000;-76
2024/04/16 05:23:48;;;;;;;0.50;0.50;;;9.20;99.90;;;;;;5392323;26;20004;-76
2024/04/16 05:26:14;;;;;;;0.88;0.50;;;9.20;99.90;;;;;;5405078;26;20047;-78
2024/04/16 05:28:39;;;;;;;1.13;0.60;;;9.20;99.90;;;;;;5404444;26;20003;-75
2024/04/16 05:31:05;;;;;;;0.63;0.50;;;9.10;99.90;;;;;;5407160;26;19999;-75
2024/04/16 05:33:31;;;;;;;1.33;0.60;;;9.10;99.90;;;;;;5399582;26;20000;-77
2024/04/16 05:35:56;;;;;;;1.30;0.65;;;9.00;99.90;;;;;;5406621;26;20011;-77
2024/04/16 05:38:22;;;;;;;2.17;0.52;;;9.00;99.90;;;;;;5410369;26;20085;-75
2024/04/16 05:40:48;;;;;;;2.00;0.73;;;9.10;99.90;;;;;;5407883;26;19992;-77
2024/04/16 05:43:13;;;;;;;1.05;0.60;;;9.10;99.90;;;;;;5401328;26;20057;-75
2024/04/16 05:45:39;;;;;;;0.95;0.60;;;9.10;99.90;;;;;;5397561;26;19999;-77
2024/04/16 05:48:05;;;;;;;0.95;0.60;;;9.10;99.90;;;;;;5399959;26;20888;-78
2024/04/16 05:50:31;;;;;;;3.63;0.90;;;9.20;99.90;;;;;;5410960;26;19996;-75
2024/04/16 05:52:56;;;;;;;1.70;0.80;;;9.10;99.90;;;;;;5391253;26;20004;-76
2024/04/16 05:55:22;;;;;;;1.08;0.60;;;9.30;99.90;;;;;;5394514;26;19999;-77
2024/04/16 05:57:47;;;;;;;3.38;0.82;;;9.30;99.90;;;;;;5402072;26;20050;-77
2024/04/16 06:00:13;;;;;;;2.45;0.80;;;9.30;99.90;;;;;;5409178;26;20019;-75
2024/04/16 06:02:39;;;;;;;2.15;0.73;;;9.30;99.90;;;;;;5404162;26;20008;-76
2024/04/16 06:05:05;;;;;;;1.52;0.60;;;9.10;99.90;;;;;;5409776;26;20015;-77
2024/04/16 06:07:30;;;;;;;2.25;0.80;;;9.20;99.90;;;;;;5403026;26;20007;-77
2024/04/16 06:09:56;;;;;;;5.28;0.65;;;9.20;99.90;;;;;;5396576;26;19999;-77
2024/04/16 06:12:21;;;;;;;4.68;1.23;;;9.10;99.90;;;;;;5406542;26;20007;-75
2024/04/16 06:14:47;;;;;;;6.07;1.15;;;9.20;99.90;;;;;;5403690;26;19991;-77
2024/04/16 06:17:12;;;;;;;0.80;0.70;;;9.10;99.90;;;;;;5391630;26;20031;-75
2024/04/16 06:19:38;;;;;;;1.42;0.75;;;9.20;99.90;;;;;;5402303;26;20019;-75
2024/04/16 06:22:04;;;;;;;5.18;1.08;;;9.30;99.90;;;;;;5405317;26;20014;-77
2024/04/16 06:24:29;;;;;;;3.88;0.70;;;9.30;99.90;;;;;;5388349;26;20771;-74
2024/04/16 06:26:55;;;;;;;2.47;1.65;;;9.30;99.90;;;;;;5392948;26;20004;-76
2024/04/16 06:29:21;;;;;;;2.33;0.70;;;9.20;99.90;;;;;;5406384;26;20000;-78
2024/04/16 06:31:47;;;;;;;4.55;1.05;;;9.40;99.90;;;;;;5409378;26;20006;-75
2024/04/16 06:34:12;;;;;;;4.80;1.30;;;9.40;99.90;;;;;;5405480;26;19999;-78
2024/04/16 06:36:38;;;;;;;3.10;0.82;;;9.40;99.90;;;;;;5407977;26;20035;-75
2024/04/16 06:39:03;;;;;;;2.85;1.38;;;9.40;99.90;;;;;;5397493;26;20042;-75
2024/04/16 06:41:29;;;;;;;2.53;1.05;;;9.30;99.90;;;;;;5400058;26;20445;-78
2024/04/16 06:43:54;;;;;;;7.82;1.13;;;9.40;99.90;;;;;;5404184;26;20055;-77
2024/04/16 06:46:20;;;;;;;5.25;1.20;;;9.60;99.90;;;;;;5396657;26;20463;-76
2024/04/16 06:48:45;;;;;;;3.20;0.93;;;9.60;99.90;;;;;;5389382;26;21053;-76
2024/04/16 06:51:11;;;;;;;3.30;1.27;;;9.50;99.90;;;;;;5403475;26;20011;-76
2024/04/16 06:53:37;;;;;;;3.22;1.02;;;9.50;99.90;;;;;;5400805;26;20428;-76
2024/04/16 06:56:05;;;;;;;3.13;0.82;;;9.60;99.90;;;;;;5397202;26;20402;-78
2024/04/16 06:58:30;;;;;;;4.50;0.98;;;9.70;99.90;;;;;;5393289;26;20479;-76
2024/04/16 07:00:57;;;;;;;4.30;1.25;;;9.70;99.90;;;;;;5406013;26;19992;-77
2024/04/16 07:03:25;;;;;;;3.05;0.90;;;9.70;99.90;;;;;;5405908;26;20080;-75
2024/04/16 07:05:51;;;;;;;5.75;1.30;;;9.70;99.90;;;;;;5409337;26;20364;-77
2024/04/16 07:08:18;;;;;;;12.20;1.35;;;9.60;99.90;;;;;;5403820;26;20035;-76
2024/04/16 07:10:45;;;;;;;3.60;1.08;;;9.60;99.90;;;;;;5396304;26;20015;-76
2024/04/16 07:13:11;;;;;;;7.07;1.27;;;9.70;99.90;;;;;;5393944;26;20011;-78
2024/04/16 07:15:37;;;;;;;4.03;0.98;;;9.70;99.90;;;;;;5408102;26;20469;-76
2024/04/16 07:18:03;;;;;;;4.05;1.05;;;9.70;99.90;;;;;;5393848;26;20015;-76
2024/04/16 07:20:28;;;;;;;8.10;1.50;;;9.70;99.90;;;;;;5384943;26;20004;-75
2024/04/16 07:22:54;;;;;;;2.88;1.05;;;9.80;99.90;;;;;;5401828;26;20039;-78
2024/04/16 07:25:19;;;;;;;2.55;0.88;;;9.80;99.90;;;;;;5405640;26;20082;-75
2024/04/16 07:27:45;;;;;;;2.20;0.88;;;9.90;99.90;;;;;;5402360;26;19995;-78
2024/04/16 07:30:11;;;;;;;4.22;1.10;;;9.90;99.90;;;;;;5408834;26;20607;-78
2024/04/16 07:32:37;;;;;;;6.80;0.65;;;9.80;99.90;;;;;;5402379;26;20599;-77
2024/04/16 07:35:02;;;;;;;2.50;1.08;;;10.00;99.90;;;;;;5403060;26;19996;-77
2024/04/16 07:37:28;;;;;;;1.98;0.93;;;10.10;99.90;;;;;;5400351;26;20004;-76
2024/04/16 07:39:54;;;;;;;5.10;0.88;;;10.00;99.90;;;;;;5404895;26;19999;-78
2024/04/16 07:42:19;;;;;;;8.45;0.82;;;10.10;99.90;;;;;;5390564;26;20015;-75
2024/04/16 07:44:45;;;;;;;10.27;0.80;;;10.10;99.90;;;;;;5400968;26;20120;-75
2024/04/16 07:47:10;;;;;;;6.60;1.15;;;10.10;99.90;;;;;;5407447;26;19996;-75
2024/04/16 07:49:36;;;;;;;5.78;0.95;;;10.30;99.90;;;;;;5392013;26;20415;-76
2024/04/16 07:52:01;;;;;;;6.00;0.90;;;10.30;99.90;;;;;;5381346;26;20727;-76
2024/04/16 07:54:27;;;;;;;5.75;0.85;;;10.30;99.90;;;;;;5408192;26;20502;-76
2024/04/16 07:56:53;;;;;;;1.83;0.80;;;10.30;99.90;;;;;;5408212;26;20007;-77
2024/04/16 07:59:22;;;;;;;6.00;1.58;;;10.20;99.90;;;;;;5405734;26;20008;-75
2024/04/16 08:01:47;;;;;;;4.15;1.25;;;10.30;99.90;;;;;;5406055;26;20018;-77
2024/04/16 08:04:13;;;;;;;1.08;0.63;;;10.10;99.90;;;;;;5403061;26;20036;-75
2024/04/16 08:06:38;;;;;;;3.70;1.40;;;10.30;99.90;;;;;;5395890;26;20000;-76
2024/04/16 08:09:04;;;;;;;5.93;0.88;;;10.30;99.90;;;;;;5430773;26;20461;-77
2024/04/16 08:11:30;;;;;;;5.78;0.82;;;10.30;99.90;;;;;;5396886;26;20022;-77
2024/04/16 08:13:55;;;;;;;11.18;1.02;;;10.20;99.90;;;;;;5388919;26;19999;-76
2024/04/16 08:16:21;;;;;;;5.80;1.42;;;10.40;99.90;;;;;;5399217;26;20407;-76
2024/04/16 08:18:47;;;;;;;7.63;1.05;;;10.50;99.90;;;;;;5400159;26;20715;-76
2024/04/16 08:21:12;;;;;;;4.75;0.85;;;10.50;99.50;;;;;;5393804;26;20454;-77
2024/04/16 08:23:38;;;;;;;1.08;0.60;;;10.50;99.90;;;;;;5392801;26;20008;-78
2024/04/16 08:26:06;;;;;;;5.13;1.02;;;10.70;99.90;;;;;;5410562;26;20008;-77
2024/04/16 08:28:32;;;;;;;3.20;0.93;;;10.60;97.40;;;;;;5408676;26;20003;-77
2024/04/16 08:31:00;;;;;;;3.42;0.60;;;10.50;97.20;;;;;;5405924;26;20412;-76
2024/04/16 08:33:26;;;;;;;2.25;0.85;;;10.30;97.20;;;;;;5407835;26;20026;-77
2024/04/16 08:35:52;;;;;;;5.18;1.17;;;10.30;97.60;;;;;;5400184;26;20464;-77
2024/04/16 08:38:19;;;;;;;1.80;0.73;;;10.50;99.10;;;;;;5397470;26;20007;-75
2024/04/16 08:40:45;;;;;;;2.85;1.02;;;10.50;98.30;;;;;;5406003;26;19996;-78
2024/04/16 08:43:11;;;;;;;1.23;0.75;;;10.90;97.00;;;;;;5410370;26;20053;-77
2024/04/16 08:45:37;;;;;;;1.27;0.70;;;10.90;94.60;;;;;;5388766;26;20004;-76
2024/04/16 08:48:04;;;;;;;5.35;1.17;;;11.00;95.80;;;;;;5433478;26;20049;-77
2024/04/16 08:50:31;;;;;;;3.55;1.13;;;10.80;95.30;;;;;;5401259;26;20069;-77
2024/04/16 08:52:58;;;;;;;1.50;0.60;;;11.20;95.80;;;;;;5408655;26;20008;-77
2024/04/16 08:55:25;;;;;;;3.28;0.90;;;11.30;94.70;;;;;;5411315;26;19996;-76
2024/04/16 08:57:51;;;;;;;2.17;1.10;;;11.20;93.10;;;;;;5407506;26;20463;-77
2024/04/16 09:00:17;;;;;;;3.78;0.85;;;11.00;93.60;;;;;;5409371;26;19996;-78
2024/04/16 09:02:44;;;;;;;1.25;0.75;;;11.00;93.70;;;;;;5402263;26;19996;-75
2024/04/16 09:05:10;;;;;;;2.97;0.90;;;11.00;93.10;;;;;;5404209;26;20066;-78
2024/04/16 09:07:37;;;;;;;3.47;0.90;;;11.10;92.70;;;;;;5394764;26;20003;-77
2024/04/16 09:10:18;;;;;;;3.10;0.70;;;11.20;93.00;;;;;;5395028;26;20000;-76
2024/04/16 09:12:44;;;;;;;2.42;0.82;;;11.40;92.20;;;;;;5403138;26;20055;-77
2024/04/16 09:15:13;;;;;;;5.55;1.10;;;11.90;90.40;;;;;;5397325;26;20013;-78
2024/04/16 09:17:49;;;;;;;5.70;1.40;;;11.80;90.70;;;;;;5387412;26;20454;-76
2024/04/16 09:20:20;;;;;;;6.30;1.42;;;12.30;90.30;;;;;;5408153;26;20077;-78
2024/04/16 09:22:46;;;;;;;;;;;12.00;90.30;;;;;;5411602;26;20382;-77
2024/04/16 09:25:11;;;;;;;3.38;0.80;;;12.60;90.90;;;;;;5406164;26;19925;-78
2024/04/16 09:27:37;;;;;;;4.70;1.10;;;12.50;88.80;;;;;;5431486;26;20011;-78
2024/04/16 09:30:12;;;;;;;6.30;1.23;;;12.70;88.70;;;;;;5401720;26;20006;-77
2024/04/16 09:32:40;;;;;;;4.30;0.88;;;12.60;89.10;;;;;;5425628;26;20049;-76
2024/04/16 09:35:05;;;;;;;2.47;0.70;;;12.60;89.00;;;;;;5407061;26;20008;-76
2024/04/16 09:37:32;;;;;;;1.95;0.68;;;12.20;89.90;;;;;;5396658;26;20546;-78
2024/04/16 09:39:59;;;;;;;1.33;0.90;;;12.20;86.90;;;;;;5392303;26;20031;-76
2024/04/16 09:42:26;;;;;;;5.07;0.70;;;12.20;88.20;;;;;;5405115;26;20310;-78
2024/04/16 09:44:52;;;;;;;2.60;0.98;;;12.30;88.00;;;;;;5400784;26;20424;-77
2024/04/16 09:47:18;;;;;;;1.63;1.00;;;12.10;90.20;;;;;;5394023;26;20000;-76
2024/04/16 09:49:44;;;;;;;0.40;0.40;;;12.40;90.30;;;;;;5406252;26;20011;-78
2024/04/16 09:52:13;;;;;;;1.67;0.70;;;12.40;84.40;;;;;;5404973;26;20461;-77
2024/04/16 09:54:43;;;;;;;2.15;0.82;;;12.80;86.40;;;;;;5406903;26;20004;-76
2024/04/16 09:57:10;;;;;;;3.73;0.90;;;12.50;85.10;;;;;;5403930;26;20013;-77
2024/04/16 09:59:38;;;;;;;5.80;1.30;;;12.80;87.30;;;;;;5403938;26;20006;-77
2024/04/16 10:02:04;;;;;;;1.95;0.93;;;13.40;86.90;;;;;;5394430;26;20018;-78
2024/04/16 10:04:30;;;;;;;4.65;1.00;;;13.40;86.70;;;;;;5396321;26;20000;-78
2024/04/16 10:06:56;;;;;;;5.15;0.80;;;13.50;83.10;;;;;;5406829;26;20004;-76
2024/04/16 10:09:23;;;;;;;2.25;0.80;;;12.80;86.30;;;;;;5395248;26;20019;-77
2024/04/16 10:11:49;;;;;;;2.97;0.60;;;12.70;84.00;;;;;;5384825;26;20004;-76
2024/04/16 10:14:18;;;;;;;1.85;0.90;;;13.00;81.10;;;;;;5404765;26;20069;-80
2024/04/16 10:16:45;;;;;;;5.35;0.73;;;13.80;80.90;;;;;;5400491;26;20458;-77
2024/04/16 10:19:15;;;;;;;3.25;0.70;;;14.20;79.20;;;;;;5406243;26;19999;-76
2024/04/16 10:21:41;;;;;;;4.68;0.82;;;13.80;76.80;;;;;;5409240;26;19996;-80
2024/04/16 10:24:10;;;;;;;3.00;0.77;;;13.80;77.00;;;;;;5431306;26;20041;-78
2024/04/16 10:26:41;;;;;;;6.83;0.80;;;13.90;79.10;;;;;;5403759;26;20016;-77
2024/04/16 10:29:14;;;;;;;3.22;0.82;;;13.80;77.90;;;;;;5403247;26;20225;-76
2024/04/16 10:31:40;;;;;;;3.63;0.70;;;13.50;79.60;;;;;;5395572;26;19999;-77
2024/04/16 10:34:06;;;;;;;5.45;0.85;;;13.90;79.60;;;;;;5391475;26;20007;-76
2024/04/16 10:36:33;;;;;;;3.35;0.82;;;14.00;77.00;;;;;;5403727;26;20004;-77
2024/04/16 10:39:09;;;;;;;0.60;0.60;;;13.70;77.10;;;;;;5402011;26;20004;-76
2024/04/16 10:41:35;;;;;;;3.85;0.82;;;13.90;78.70;;;;;;5391740;26;19999;-78
2024/04/16 10:44:02;;;;;;;0.98;0.65;;;14.50;76.70;;;;;;5397819;26;20014;-76
2024/04/16 10:46:28;;;;;;;2.80;0.73;;;14.10;76.40;;;;;;5408496;26;20007;-78
2024/04/16 10:48:56;;;;;;;2.63;0.73;;;14.40;78.80;;;;;;5404046;26;20031;-76
2024/04/16 10:51:21;;;;;;;0.82;0.52;;;13.80;77.80;;;;;;5408398;26;20013;-77
2024/04/16 10:53:47;;;;;;;1.65;0.60;;;13.80;76.60;;;;;;5406478;26;20000;-77
2024/04/16 10:56:13;;;;;;;1.00;0.65;;;13.20;75.80;;;;;;5401727;26;20014;-76
2024/04/16 10:58:39;;;;;;;1.48;0.50;;;12.90;77.70;;;;;;5399967;26;20007;-76
2024/04/16 11:01:05;;;;;;;1.02;0.63;;;12.90;77.20;;;;;;5408627;26;20010;-79
2024/04/16 11:03:34;;;;;;;0.77;0.50;;;12.80;77.60;;;;;;5403331;26;19999;-76
2024/04/16 11:06:00;;;;;;;0.55;0.50;;;12.70;79.50;;;;;;5391075;26;20080;-76
2024/04/16 11:08:28;;;;;;;0.70;0.70;;;12.70;80.80;;;;;;5403693;26;20016;-78
2024/04/16 11:10:54;;;;;;;1.05;0.82;;;12.70;81.60;;;;;;5394209;26;20000;-79
2024/04/16 11:13:20;;;;;;;2.60;0.65;;;12.70;81.30;;;;;;5394400;26;20256;-76
2024/04/16 11:15:46;;;;;;;1.73;0.88;;;12.80;80.30;;;;;;5398128;26;20073;-78
2024/04/16 11:18:12;;;;;;;3.53;0.60;;;12.70;81.70;;;;;;5403267;26;19992;-76
2024/04/16 11:20:39;;;;;;;1.08;0.80;;;12.60;82.60;;;;;;5407462;26;20000;-79
2024/04/16 11:23:04;;;;;;;1.58;0.68;;;12.60;82.30;;;;;;5400206;26;20011;-79
2024/04/16 11:25:31;;;;;;;2.78;0.63;;;12.70;84.20;;;;;;5402630;26;20000;-80
2024/04/16 11:27:57;;;;;;;7.15;1.02;;;12.80;83.40;;;;;;5396609;26;20439;-78
2024/04/16 11:30:24;;;;;;;3.05;0.77;;;13.00;82.20;;;;;;5396665;26;20003;-79
2024/04/16 11:32:50;;;;;;;1.67;0.88;;;12.80;82.20;;;;;;5429327;26;19992;-76
2024/04/16 11:35:15;;;;;;;4.32;0.88;;;12.80;83.40;;;;;;5393182;26;20077;-78
2024/04/16 11:37:44;;;;;;;9.48;0.73;;;13.00;82.00;;;;;;5387700;26;20495;-79
2024/04/16 11:40:10;;;;;;;2.33;0.60;;;12.70;81.80;;;;;;5403111;26;20069;-76
2024/04/16 11:42:36;;;;;;;5.57;0.57;;;12.60;81.70;;;;;;5429790;26;20356;-77
2024/04/16 11:45:02;;;;;;;1.70;0.77;;;13.00;84.10;;;;;;5405125;26;19995;-80
2024/04/16 11:47:28;;;;;;;1.83;0.60;;;13.10;81.70;;;;;;5393161;26;20810;-79
2024/04/16 11:49:53;;;;;;;1.73;0.55;;;13.50;82.20;;;;;;5403641;26;20004;-77
2024/04/16 11:52:19;;;;;;;10.30;0.70;;;13.70;80.80;;;;;;5403372;26;19996;-78
2024/04/16 11:54:45;;;;;;;1.80;0.55;;;13.70;78.10;;;;;;5405707;26;20000;-77
2024/04/16 11:57:10;;;;;;;4.82;1.10;;;13.90;78.50;;;;;;5399839;26;20003;-77
2024/04/16 11:59:36;;;;;;;4.93;0.90;;;13.60;79.30;;;;;;5396846;26;20461;-77
2024/04/16 12:02:02;;;;;;;2.28;0.70;;;13.30;81.10;;;;;;5399521;26;20072;-77
2024/04/16 12:04:28;;;;;;;1.88;0.80;;;13.10;82.10;;;;;;5405957;26;20032;-76
2024/04/16 12:06:54;;;;;;;1.90;0.60;;;13.00;83.70;;;;;;5397014;26;20051;-78
2024/04/16 12:09:20;;;;;;;3.03;0.70;;;12.70;88.30;;;;;;5394607;26;19991;-77
2024/04/16 12:11:45;;;;;;;2.47;0.73;;;13.00;86.50;;;;;;5404637;26;20468;-76
2024/04/16 12:14:11;;;;;;;0.68;0.50;;;13.40;86.50;;;;;;5407095;26;20000;-79
2024/04/16 12:16:40;;;;;;;1.60;0.50;;;13.30;86.50;;;;;;5404575;26;20003;-76
2024/04/16 12:19:07;;;;;;;9.55;0.70;;;13.20;84.00;;;;;;5408959;26;20342;-77
2024/04/16 12:21:32;;;;;;;12.00;0.63;;;13.20;84.70;;;;;;5403844;26;20012;-77
2024/04/16 12:23:58;;;;;;;1.52;0.70;;;13.30;82.00;;;;;;5403275;26;20484;-76
2024/04/16 12:26:24;;;;;;;2.05;0.73;;;13.40;82.10;;;;;;5408743;26;20457;-78
2024/04/16 12:28:50;;;;;;;0.50;0.50;;;13.20;80.00;;;;;;5396689;26;20031;-79
2024/04/16 12:31:15;;;;;;;0.73;0.60;;;13.20;82.70;;;;;;5393854;26;20569;-79
2024/04/16 12:33:41;;;;;;;4.53;0.88;;;13.30;86.40;;;;;;5401306;26;20011;-77
2024/04/16 12:36:09;;;;;;;1.10;0.57;;;13.10;86.40;;;;;;5403375;26;20004;-77
2024/04/16 12:38:35;;;;;;;1.02;0.50;;;12.90;85.90;;;;;;5400194;26;20051;-80
2024/04/16 12:41:00;;;;;;;1.88;0.50;;;12.90;86.60;;;;;;5395859;26;20011;-77
2024/04/16 12:43:26;;;;;;;4.05;0.70;;;12.80;86.60;;;;;;5410048;26;20015;-81
2024/04/16 12:45:58;;;;;;;1.20;0.55;;;12.70;85.90;;;;;;5407543;26;20018;-80
2024/04/16 12:48:26;;;;;;;3.15;0.88;;;12.80;86.80;;;;;;5410452;26;20030;-79